sensor_id;sensor_type;location;lat;lon;timestamp;temperature;humidity
20366;DHT22;10341;49.894;8.822;2022-12-07T00:02:40;3.20;99.90
20366;DHT22;10341;49.894;8.822;2022-12-07T00:07:59;3.20;99.90
20366;DHT22;10341;49.894;8.822;2022-12-07T00:13:18;3.20;99.90
20366;DHT22;10341;49.894;8.822;2022-12-07T00:18:37;3.30;99.90
20366;DHT22;10341;49.894;8.822;2022-12-07T00:23:57;3.30;99.90
20366;DHT22;10341;49.894;8.822;2022-12-07T00:29:19;3.30;99.90
20366;DHT22;10341;49.894;8.822;2022-12-07T00:34:39;3.40;99.90
20366;DHT22;10341;49.894;8.822;2022-12-07T00:39:59;3.30;99.90
20366;DHT22;10341;49.894;8.822;2022-12-07T00:45:18;3.30;99.90
20366;DHT22;10341;49.894;8.822;2022-12-07T00:50:37;3.40;99.90
20366;DHT22;10341;49.894;8.822;2022-12-07T00:55:56;3.40;99.90
20366;DHT22;10341;49.894;8.822;2022-12-07T01:01:16;3.40;99.90
20366;DHT22;10341;49.894;8.822;2022-12-07T01:06:35;3.50;99.90
20366;DHT22;10341;49.894;8.822;2022-12-07T01:11:54;3.50;99.90
20366;DHT22;10341;49.894;8.822;2022-12-07T01:17:13;3.50;99.90
20366;DHT22;10341;49.894;8.822;2022-12-07T01:22:37;3.50;99.90
20366;DHT22;10341;49.894;8.822;2022-12-07T01:27:56;3.50;99.90
20366;DHT22;10341;49.894;8.822;2022-12-07T01:33:15;3.50;99.90
20366;DHT22;10341;49.894;8.822;2022-12-07T01:38:34;3.60;99.90
20366;DHT22;10341;49.894;8.822;2022-12-07T01:49:38;3.60;99.90
20366;DHT22;10341;49.894;8.822;2022-12-07T01:55:02;3.60;99.90
20366;DHT22;10341;49.894;8.822;2022-12-07T02:00:23;3.60;99.90
20366;DHT22;10341;49.894;8.822;2022-12-07T02:05:43;3.60;99.90
20366;DHT22;10341;49.894;8.822;2022-12-07T02:11:03;3.60;99.90
20366;DHT22;10341;49.894;8.822;2022-12-07T02:27:50;3.60;99.90
20366;DHT22;10341;49.894;8.822;2022-12-07T02:33:14;3.70;99.90
20366;DHT22;10341;49.894;8.822;2022-12-07T02:38:59;3.70;99.90
20366;DHT22;10341;49.894;8.822;2022-12-07T02:44:25;3.70;99.90
20366;DHT22;10341;49.894;8.822;2022-12-07T02:49:45;3.70;99.90
20366;DHT22;10341;49.894;8.822;2022-12-07T02:55:06;3.70;99.90
20366;DHT22;10341;49.894;8.822;2022-12-07T03:00:26;3.70;99.90
20366;DHT22;10341;49.894;8.822;2022-12-07T03:11:15;3.80;99.90
20366;DHT22;10341;49.894;8.822;2022-12-07T03:16:36;3.90;99.90
20366;DHT22;10341;49.894;8.822;2022-12-07T03:22:01;3.90;99.90
20366;DHT22;10341;49.894;8.822;2022-12-07T03:27:25;3.90;99.90
20366;DHT22;10341;49.894;8.822;2022-12-07T03:32:55;3.90;99.90
20366;DHT22;10341;49.894;8.822;2022-12-07T03:38:48;3.90;99.90
20366;DHT22;10341;49.894;8.822;2022-12-07T03:44:08;4.00;99.90
20366;DHT22;10341;49.894;8.822;2022-12-07T04:00:26;4.00;99.90
20366;DHT22;10341;49.894;8.822;2022-12-07T04:05:46;3.90;99.90
20366;DHT22;10341;49.894;8.822;2022-12-07T04:11:05;3.90;99.90
20366;DHT22;10341;49.894;8.822;2022-12-07T04:16:24;3.90;99.90
20366;DHT22;10341;49.894;8.822;2022-12-07T04:21:43;3.90;99.90
20366;DHT22;10341;49.894;8.822;2022-12-07T04:27:03;3.90;99.90
20366;DHT22;10341;49.894;8.822;2022-12-07T04:32:23;3.90;99.90
20366;DHT22;10341;49.894;8.822;2022-12-07T04:37:43;3.80;99.90
20366;DHT22;10341;49.894;8.822;2022-12-07T04:43:02;3.80;99.90
20366;DHT22;10341;49.894;8.822;2022-12-07T04:48:21;3.90;99.90
20366;DHT22;10341;49.894;8.822;2022-12-07T04:53:40;3.80;99.90
20366;DHT22;10341;49.894;8.822;2022-12-07T04:58:59;3.90;99.90
20366;DHT22;10341;49.894;8.822;2022-12-07T05:04:19;3.90;99.90
20366;DHT22;10341;49.894;8.822;2022-12-07T05:09:38;3.90;99.90
20366;DHT22;10341;49.894;8.822;2022-12-07T05:14:57;3.90;99.90
20366;DHT22;10341;49.894;8.822;2022-12-07T05:20:16;3.90;99.90
20366;DHT22;10341;49.894;8.822;2022-12-07T05:25:35;3.90;99.90
20366;DHT22;10341;49.894;8.822;2022-12-07T05:30:54;3.90;99.90
20366;DHT22;10341;49.894;8.822;2022-12-07T05:36:14;3.90;99.90
20366;DHT22;10341;49.894;8.822;2022-12-07T05:41:33;3.90;99.90
20366;DHT22;10341;49.894;8.822;2022-12-07T05:47:12;3.90;99.90
20366;DHT22;10341;49.894;8.822;2022-12-07T05:52:32;4.00;99.90
20366;DHT22;10341;49.894;8.822;2022-12-07T05:57:51;4.00;99.90
20366;DHT22;10341;49.894;8.822;2022-12-07T06:03:29;4.00;99.90
20366;DHT22;10341;49.894;8.822;2022-12-07T06:08:48;4.10;99.90
20366;DHT22;10341;49.894;8.822;2022-12-07T06:14:07;4.10;99.90
20366;DHT22;10341;49.894;8.822;2022-12-07T06:19:27;4.10;99.90
20366;DHT22;10341;49.894;8.822;2022-12-07T06:24:46;4.10;99.90
20366;DHT22;10341;49.894;8.822;2022-12-07T06:30:06;4.10;99.90
20366;DHT22;10341;49.894;8.822;2022-12-07T06:35:27;4.10;99.90
20366;DHT22;10341;49.894;8.822;2022-12-07T06:40:47;4.20;99.90
20366;DHT22;10341;49.894;8.822;2022-12-07T06:46:07;4.20;99.90
20366;DHT22;10341;49.894;8.822;2022-12-07T06:51:27;4.20;99.90
20366;DHT22;10341;49.894;8.822;2022-12-07T06:56:46;4.20;99.90
20366;DHT22;10341;49.894;8.822;2022-12-07T07:02:05;4.20;99.90
20366;DHT22;10341;49.894;8.822;2022-12-07T07:07:24;4.20;99.90
20366;DHT22;10341;49.894;8.822;2022-12-07T07:12:43;4.20;99.90
20366;DHT22;10341;49.894;8.822;2022-12-07T07:18:02;4.20;99.90
20366;DHT22;10341;49.894;8.822;2022-12-07T07:23:22;4.20;99.90
20366;DHT22;10341;49.894;8.822;2022-12-07T07:28:42;4.30;99.90
20366;DHT22;10341;49.894;8.822;2022-12-07T07:34:01;4.30;99.90
20366;DHT22;10341;49.894;8.822;2022-12-07T07:39:20;4.30;99.90
20366;DHT22;10341;49.894;8.822;2022-12-07T07:44:39;4.40;99.90
20366;DHT22;10341;49.894;8.822;2022-12-07T07:49:58;4.40;99.90
20366;DHT22;10341;49.894;8.822;2022-12-07T07:55:18;4.40;99.90
20366;DHT22;10341;49.894;8.822;2022-12-07T08:00:37;4.40;99.90
20366;DHT22;10341;49.894;8.822;2022-12-07T08:05:57;4.40;99.90
20366;DHT22;10341;49.894;8.822;2022-12-07T08:11:16;4.50;99.90
20366;DHT22;10341;49.894;8.822;2022-12-07T08:16:35;4.50;99.90
20366;DHT22;10341;49.894;8.822;2022-12-07T08:21:55;4.60;99.90
20366;DHT22;10341;49.894;8.822;2022-12-07T08:27:14;4.70;99.90
20366;DHT22;10341;49.894;8.822;2022-12-07T08:32:33;4.80;99.90
20366;DHT22;10341;49.894;8.822;2022-12-07T08:37:52;4.90;99.90
20366;DHT22;10341;49.894;8.822;2022-12-07T08:43:12;4.90;99.90
20366;DHT22;10341;49.894;8.822;2022-12-07T08:48:32;5.00;99.90
20366;DHT22;10341;49.894;8.822;2022-12-07T08:53:52;5.10;99.90
20366;DHT22;10341;49.894;8.822;2022-12-07T08:59:15;5.10;99.90
20366;DHT22;10341;49.894;8.822;2022-12-07T09:04:36;5.10;99.90
20366;DHT22;10341;49.894;8.822;2022-12-07T09:09:55;5.20;99.90
20366;DHT22;10341;49.894;8.822;2022-12-07T09:15:15;5.70;99.90
20366;DHT22;10341;49.894;8.822;2022-12-07T09:20:34;5.80;99.90
20366;DHT22;10341;49.894;8.822;2022-12-07T09:25:53;5.60;99.90
20366;DHT22;10341;49.894;8.822;2022-12-07T09:31:12;6.70;99.90
20366;DHT22;10341;49.894;8.822;2022-12-07T09:36:31;8.80;99.90
20366;DHT22;10341;49.894;8.822;2022-12-07T09:41:50;10.70;99.90
20366;DHT22;10341;49.894;8.822;2022-12-07T09:47:10;11.90;99.90
20366;DHT22;10341;49.894;8.822;2022-12-07T09:52:30;12.40;99.90
20366;DHT22;10341;49.894;8.822;2022-12-07T09:57:50;10.60;99.90
20366;DHT22;10341;49.894;8.822;2022-12-07T10:03:11;9.10;99.90
20366;DHT22;10341;49.894;8.822;2022-12-07T10:08:30;7.90;99.90
20366;DHT22;10341;49.894;8.822;2022-12-07T10:13:52;7.30;99.90
20366;DHT22;10341;49.894;8.822;2022-12-07T10:19:32;6.80;99.90
20366;DHT22;10341;49.894;8.822;2022-12-07T10:24:52;6.60;99.90
20366;DHT22;10341;49.894;8.822;2022-12-07T10:30:14;6.50;99.90
20366;DHT22;10341;49.894;8.822;2022-12-07T10:35:42;6.60;99.90
20366;DHT22;10341;49.894;8.822;2022-12-07T10:41:08;6.90;99.90
20366;DHT22;10341;49.894;8.822;2022-12-07T10:58:14;10.60;99.90
20366;DHT22;10341;49.894;8.822;2022-12-07T11:31:21;9.00;99.90
20366;DHT22;10341;49.894;8.822;2022-12-07T11:36:48;8.60;99.90
20366;DHT22;10341;49.894;8.822;2022-12-07T11:42:42;8.20;99.90
20366;DHT22;10341;49.894;8.822;2022-12-07T11:53:59;7.90;99.90
20366;DHT22;10341;49.894;8.822;2022-12-07T11:59:31;7.70;99.90
20366;DHT22;10341;49.894;8.822;2022-12-07T12:04:56;7.30;99.90
20366;DHT22;10341;49.894;8.822;2022-12-07T12:10:58;7.70;99.90
20366;DHT22;10341;49.894;8.822;2022-12-07T12:22:19;7.80;99.90
20366;DHT22;10341;49.894;8.822;2022-12-07T12:27:40;8.00;99.90
20366;DHT22;10341;49.894;8.822;2022-12-07T12:33:26;8.20;99.90
20366;DHT22;10341;49.894;8.822;2022-12-07T12:49:38;7.20;99.90
20366;DHT22;10341;49.894;8.822;2022-12-07T12:55:14;7.10;99.90
20366;DHT22;10341;49.894;8.822;2022-12-07T13:00:38;7.10;99.90
20366;DHT22;10341;49.894;8.822;2022-12-07T13:11:44;7.00;99.90
20366;DHT22;10341;49.894;8.822;2022-12-07T13:17:04;7.00;99.90
20366;DHT22;10341;49.894;8.822;2022-12-07T13:28:12;6.70;99.90
20366;DHT22;10341;49.894;8.822;2022-12-07T13:33:34;6.60;99.90
20366;DHT22;10341;49.894;8.822;2022-12-07T13:38:57;6.50;99.90
20366;DHT22;10341;49.894;8.822;2022-12-07T13:44:18;6.40;99.90
20366;DHT22;10341;49.894;8.822;2022-12-07T13:49:49;6.40;99.90
20366;DHT22;10341;49.894;8.822;2022-12-07T13:55:15;6.50;99.90
20366;DHT22;10341;49.894;8.822;2022-12-07T14:00:36;6.60;99.90
20366;DHT22;10341;49.894;8.822;2022-12-07T14:06:17;6.90;99.90
20366;DHT22;10341;49.894;8.822;2022-12-07T14:11:37;6.90;99.90
20366;DHT22;10341;49.894;8.822;2022-12-07T14:17:01;6.80;99.90
20366;DHT22;10341;49.894;8.822;2022-12-07T14:33:11;6.30;99.90
20366;DHT22;10341;49.894;8.822;2022-12-07T14:38:31;5.90;99.90
20366;DHT22;10341;49.894;8.822;2022-12-07T14:43:50;5.70;99.90
20366;DHT22;10341;49.894;8.822;2022-12-07T14:49:10;5.70;99.90
20366;DHT22;10341;49.894;8.822;2022-12-07T14:54:31;5.60;99.90
20366;DHT22;10341;49.894;8.822;2022-12-07T14:59:51;5.50;99.90
20366;DHT22;10341;49.894;8.822;2022-12-07T15:05:10;5.50;99.90
20366;DHT22;10341;49.894;8.822;2022-12-07T15:10:32;5.50;99.90
20366;DHT22;10341;49.894;8.822;2022-12-07T15:15:53;5.40;99.90
20366;DHT22;10341;49.894;8.822;2022-12-07T15:21:15;5.40;99.90
20366;DHT22;10341;49.894;8.822;2022-12-07T15:26:34;5.40;99.90
20366;DHT22;10341;49.894;8.822;2022-12-07T15:31:53;5.30;99.90
20366;DHT22;10341;49.894;8.822;2022-12-07T15:37:13;5.40;99.90
20366;DHT22;10341;49.894;8.822;2022-12-07T15:42:32;5.40;99.90
20366;DHT22;10341;49.894;8.822;2022-12-07T15:47:51;5.20;99.90
20366;DHT22;10341;49.894;8.822;2022-12-07T15:53:11;4.90;99.90
20366;DHT22;10341;49.894;8.822;2022-12-07T15:58:31;4.80;99.90
20366;DHT22;10341;49.894;8.822;2022-12-07T16:03:50;4.60;99.90
20366;DHT22;10341;49.894;8.822;2022-12-07T16:09:09;4.50;99.90
20366;DHT22;10341;49.894;8.822;2022-12-07T16:14:28;4.50;99.90
20366;DHT22;10341;49.894;8.822;2022-12-07T16:19:48;4.50;99.90
20366;DHT22;10341;49.894;8.822;2022-12-07T16:25:08;4.50;99.90
20366;DHT22;10341;49.894;8.822;2022-12-07T16:30:27;4.50;99.90
20366;DHT22;10341;49.894;8.822;2022-12-07T16:35:46;4.50;99.90
20366;DHT22;10341;49.894;8.822;2022-12-07T16:41:06;4.50;99.90
20366;DHT22;10341;49.894;8.822;2022-12-07T16:46:25;4.40;99.90
20366;DHT22;10341;49.894;8.822;2022-12-07T16:51:44;4.40;99.90
20366;DHT22;10341;49.894;8.822;2022-12-07T16:57:03;4.40;99.90
20366;DHT22;10341;49.894;8.822;2022-12-07T17:02:22;4.40;99.90
20366;DHT22;10341;49.894;8.822;2022-12-07T17:07:41;4.40;99.90
20366;DHT22;10341;49.894;8.822;2022-12-07T17:13:02;4.40;99.90
20366;DHT22;10341;49.894;8.822;2022-12-07T17:18:21;4.40;99.90
20366;DHT22;10341;49.894;8.822;2022-12-07T17:23:41;4.30;99.90
20366;DHT22;10341;49.894;8.822;2022-12-07T17:29:00;4.30;99.90
20366;DHT22;10341;49.894;8.822;2022-12-07T17:34:19;4.30;99.90
20366;DHT22;10341;49.894;8.822;2022-12-07T17:39:38;4.20;99.90
20366;DHT22;10341;49.894;8.822;2022-12-07T17:44:58;4.20;99.90
20366;DHT22;10341;49.894;8.822;2022-12-07T17:50:17;4.20;99.90
20366;DHT22;10341;49.894;8.822;2022-12-07T17:55:56;4.10;99.90
20366;DHT22;10341;49.894;8.822;2022-12-07T18:01:16;4.10;99.90
20366;DHT22;10341;49.894;8.822;2022-12-07T18:06:35;4.10;99.90
20366;DHT22;10341;49.894;8.822;2022-12-07T18:11:55;4.10;99.90
20366;DHT22;10341;49.894;8.822;2022-12-07T18:17:14;4.10;99.90
20366;DHT22;10341;49.894;8.822;2022-12-07T18:22:33;4.10;99.90
20366;DHT22;10341;49.894;8.822;2022-12-07T18:27:52;4.00;99.90
20366;DHT22;10341;49.894;8.822;2022-12-07T18:33:11;4.10;99.90
20366;DHT22;10341;49.894;8.822;2022-12-07T18:38:31;4.10;99.90
20366;DHT22;10341;49.894;8.822;2022-12-07T18:43:51;4.10;99.90
20366;DHT22;10341;49.894;8.822;2022-12-07T18:49:14;4.10;99.90
20366;DHT22;10341;49.894;8.822;2022-12-07T18:54:33;4.10;99.90
20366;DHT22;10341;49.894;8.822;2022-12-07T18:59:52;4.10;99.90
20366;DHT22;10341;49.894;8.822;2022-12-07T19:05:12;4.10;99.90
20366;DHT22;10341;49.894;8.822;2022-12-07T19:10:31;4.00;99.90
20366;DHT22;10341;49.894;8.822;2022-12-07T19:15:50;4.00;99.90
20366;DHT22;10341;49.894;8.822;2022-12-07T19:21:09;3.90;99.90
20366;DHT22;10341;49.894;8.822;2022-12-07T19:26:28;3.90;99.90
20366;DHT22;10341;49.894;8.822;2022-12-07T19:31:47;3.80;99.90
20366;DHT22;10341;49.894;8.822;2022-12-07T19:37:07;3.80;99.90
20366;DHT22;10341;49.894;8.822;2022-12-07T19:42:27;3.80;99.90
20366;DHT22;10341;49.894;8.822;2022-12-07T19:47:48;3.90;99.90
20366;DHT22;10341;49.894;8.822;2022-12-07T19:53:07;3.90;99.90
20366;DHT22;10341;49.894;8.822;2022-12-07T19:58:26;3.80;99.90
20366;DHT22;10341;49.894;8.822;2022-12-07T20:03:45;3.80;99.90
20366;DHT22;10341;49.894;8.822;2022-12-07T20:09:04;3.70;99.90
20366;DHT22;10341;49.894;8.822;2022-12-07T20:14:24;3.70;99.90
20366;DHT22;10341;49.894;8.822;2022-12-07T20:19:43;3.70;99.90
20366;DHT22;10341;49.894;8.822;2022-12-07T20:25:03;3.70;99.90
20366;DHT22;10341;49.894;8.822;2022-12-07T20:30:22;3.60;99.90
20366;DHT22;10341;49.894;8.822;2022-12-07T20:35:41;3.60;99.90
20366;DHT22;10341;49.894;8.822;2022-12-07T20:41:02;3.60;99.90
20366;DHT22;10341;49.894;8.822;2022-12-07T20:46:21;3.60;99.90
20366;DHT22;10341;49.894;8.822;2022-12-07T20:51:42;3.60;99.90
20366;DHT22;10341;49.894;8.822;2022-12-07T20:57:02;3.60;99.90
20366;DHT22;10341;49.894;8.822;2022-12-07T21:02:21;3.60;99.90
20366;DHT22;10341;49.894;8.822;2022-12-07T21:07:40;3.60;99.90
20366;DHT22;10341;49.894;8.822;2022-12-07T21:12:59;3.50;99.90
20366;DHT22;10341;49.894;8.822;2022-12-07T21:18:18;3.50;99.90
20366;DHT22;10341;49.894;8.822;2022-12-07T21:23:37;3.40;99.90
20366;DHT22;10341;49.894;8.822;2022-12-07T21:28:56;3.40;99.90
20366;DHT22;10341;49.894;8.822;2022-12-07T21:34:16;3.40;99.90
20366;DHT22;10341;49.894;8.822;2022-12-07T21:39:35;3.40;99.90
20366;DHT22;10341;49.894;8.822;2022-12-07T21:44:54;3.30;99.90
20366;DHT22;10341;49.894;8.822;2022-12-07T21:50:13;3.40;99.90
20366;DHT22;10341;49.894;8.822;2022-12-07T21:55:32;3.40;99.90
20366;DHT22;10341;49.894;8.822;2022-12-07T22:00:52;3.40;99.90
20366;DHT22;10341;49.894;8.822;2022-12-07T22:06:15;3.40;99.90
20366;DHT22;10341;49.894;8.822;2022-12-07T22:11:35;3.40;99.90
20366;DHT22;10341;49.894;8.822;2022-12-07T22:16:54;3.40;99.90
20366;DHT22;10341;49.894;8.822;2022-12-07T22:22:13;3.40;99.90
20366;DHT22;10341;49.894;8.822;2022-12-07T22:27:33;3.40;99.90
20366;DHT22;10341;49.894;8.822;2022-12-07T22:32:52;3.50;99.90
20366;DHT22;10341;49.894;8.822;2022-12-07T22:38:11;3.50;99.90
20366;DHT22;10341;49.894;8.822;2022-12-07T22:43:30;3.60;99.90
20366;DHT22;10341;49.894;8.822;2022-12-07T22:48:50;3.60;99.90
20366;DHT22;10341;49.894;8.822;2022-12-07T22:54:14;3.70;99.90
20366;DHT22;10341;49.894;8.822;2022-12-07T22:59:34;3.70;99.90
20366;DHT22;10341;49.894;8.822;2022-12-07T23:04:53;3.80;99.90
20366;DHT22;10341;49.894;8.822;2022-12-07T23:10:13;3.80;99.90
20366;DHT22;10341;49.894;8.822;2022-12-07T23:15:33;3.90;99.90
20366;DHT22;10341;49.894;8.822;2022-12-07T23:20:56;3.90;99.90
20366;DHT22;10341;49.894;8.822;2022-12-07T23:26:15;3.90;99.90
20366;DHT22;10341;49.894;8.822;2022-12-07T23:31:35;3.90;99.90
20366;DHT22;10341;49.894;8.822;2022-12-07T23:36:54;3.90;99.90
20366;DHT22;10341;49.894;8.822;2022-12-07T23:42:14;3.90;99.90
20366;DHT22;10341;49.894;8.822;2022-12-07T23:47:33;3.90;99.90
20366;DHT22;10341;49.894;8.822;2022-12-07T23:52:52;3.90;99.90
20366;DHT22;10341;49.894;8.822;2022-12-07T23:58:11;4.00;99.90
